sensor_id;sensor_type;location;lat;lon;timestamp;temperature;humidity
40323;DHT22;26030;51.164;17.100;2023-12-20T00:03:57;23.60;56.80
40323;DHT22;26030;51.164;17.100;2023-12-20T00:09:02;23.60;56.80
40323;DHT22;26030;51.164;17.100;2023-12-20T00:14:07;23.50;56.60
40323;DHT22;26030;51.164;17.100;2023-12-20T00:19:11;23.50;56.80
40323;DHT22;26030;51.164;17.100;2023-12-20T00:24:16;23.50;56.60
40323;DHT22;26030;51.164;17.100;2023-12-20T00:29:21;23.50;57.00
40323;DHT22;26030;51.164;17.100;2023-12-20T00:34:26;23.50;56.30
40323;DHT22;26030;51.164;17.100;2023-12-20T00:39:31;23.40;56.50
40323;DHT22;26030;51.164;17.100;2023-12-20T00:44:36;23.30;56.20
40323;DHT22;26030;51.164;17.100;2023-12-20T00:49:41;23.40;56.50
40323;DHT22;26030;51.164;17.100;2023-12-20T00:54:46;23.60;56.10
40323;DHT22;26030;51.164;17.100;2023-12-20T00:59:51;23.80;55.90
40323;DHT22;26030;51.164;17.100;2023-12-20T01:04:56;23.90;55.50
40323;DHT22;26030;51.164;17.100;2023-12-20T01:10:02;24.00;55.20
40323;DHT22;26030;51.164;17.100;2023-12-20T01:15:07;24.00;55.20
40323;DHT22;26030;51.164;17.100;2023-12-20T01:20:13;23.90;55.60
40323;DHT22;26030;51.164;17.100;2023-12-20T01:25:18;23.80;55.50
40323;DHT22;26030;51.164;17.100;2023-12-20T01:30:23;23.70;56.00
40323;DHT22;26030;51.164;17.100;2023-12-20T01:35:28;23.70;56.10
40323;DHT22;26030;51.164;17.100;2023-12-20T01:40:33;23.60;56.00
40323;DHT22;26030;51.164;17.100;2023-12-20T01:45:38;23.60;56.00
40323;DHT22;26030;51.164;17.100;2023-12-20T01:50:43;23.70;56.00
40323;DHT22;26030;51.164;17.100;2023-12-20T01:55:49;23.60;55.80
40323;DHT22;26030;51.164;17.100;2023-12-20T02:00:56;23.50;56.40
40323;DHT22;26030;51.164;17.100;2023-12-20T02:06:02;23.40;56.00
40323;DHT22;26030;51.164;17.100;2023-12-20T02:11:08;23.30;56.20
40323;DHT22;26030;51.164;17.100;2023-12-20T02:16:12;23.40;56.40
40323;DHT22;26030;51.164;17.100;2023-12-20T02:21:17;23.60;55.80
40323;DHT22;26030;51.164;17.100;2023-12-20T02:26:21;23.90;55.30
40323;DHT22;26030;51.164;17.100;2023-12-20T02:31:26;24.00;55.50
40323;DHT22;26030;51.164;17.100;2023-12-20T02:36:31;24.10;55.00
40323;DHT22;26030;51.164;17.100;2023-12-20T02:41:36;24.10;55.00
40323;DHT22;26030;51.164;17.100;2023-12-20T02:46:40;24.10;55.00
40323;DHT22;26030;51.164;17.100;2023-12-20T02:51:45;24.00;55.10
40323;DHT22;26030;51.164;17.100;2023-12-20T02:56:50;23.90;55.40
40323;DHT22;26030;51.164;17.100;2023-12-20T03:01:54;23.70;55.60
40323;DHT22;26030;51.164;17.100;2023-12-20T03:06:59;23.70;55.80
40323;DHT22;26030;51.164;17.100;2023-12-20T03:12:04;23.70;55.70
40323;DHT22;26030;51.164;17.100;2023-12-20T03:17:09;23.70;55.90
40323;DHT22;26030;51.164;17.100;2023-12-20T03:22:14;23.60;55.90
40323;DHT22;26030;51.164;17.100;2023-12-20T03:27:18;23.60;56.00
40323;DHT22;26030;51.164;17.100;2023-12-20T03:32:23;23.50;56.00
40323;DHT22;26030;51.164;17.100;2023-12-20T03:37:28;23.50;55.90
40323;DHT22;26030;51.164;17.100;2023-12-20T03:42:32;23.40;55.90
40323;DHT22;26030;51.164;17.100;2023-12-20T03:47:37;23.40;56.20
40323;DHT22;26030;51.164;17.100;2023-12-20T03:52:42;23.60;56.20
40323;DHT22;26030;51.164;17.100;2023-12-20T03:57:47;23.80;55.50
40323;DHT22;26030;51.164;17.100;2023-12-20T04:02:52;24.00;55.10
40323;DHT22;26030;51.164;17.100;2023-12-20T04:07:56;24.10;54.90
40323;DHT22;26030;51.164;17.100;2023-12-20T04:13:03;24.10;55.10
40323;DHT22;26030;51.164;17.100;2023-12-20T04:18:08;24.00;54.90
40323;DHT22;26030;51.164;17.100;2023-12-20T04:23:13;24.00;55.00
40323;DHT22;26030;51.164;17.100;2023-12-20T04:28:17;23.90;55.30
40323;DHT22;26030;51.164;17.100;2023-12-20T04:33:22;23.80;55.60
40323;DHT22;26030;51.164;17.100;2023-12-20T04:38:27;23.70;55.50
40323;DHT22;26030;51.164;17.100;2023-12-20T04:43:31;23.60;55.60
40323;DHT22;26030;51.164;17.100;2023-12-20T04:48:36;23.70;55.50
40323;DHT22;26030;51.164;17.100;2023-12-20T04:53:41;23.60;55.60
40323;DHT22;26030;51.164;17.100;2023-12-20T04:58:46;23.50;55.70
40323;DHT22;26030;51.164;17.100;2023-12-20T05:03:50;23.40;55.90
40323;DHT22;26030;51.164;17.100;2023-12-20T05:08:55;23.40;56.00
40323;DHT22;26030;51.164;17.100;2023-12-20T05:14:00;23.30;56.30
40323;DHT22;26030;51.164;17.100;2023-12-20T05:19:04;23.30;55.90
40323;DHT22;26030;51.164;17.100;2023-12-20T05:24:10;23.30;56.00
40323;DHT22;26030;51.164;17.100;2023-12-20T05:29:15;23.20;56.00
40323;DHT22;26030;51.164;17.100;2023-12-20T05:34:20;23.20;56.30
40323;DHT22;26030;51.164;17.100;2023-12-20T05:39:25;23.20;56.10
40323;DHT22;26030;51.164;17.100;2023-12-20T05:44:30;23.10;56.20
40323;DHT22;26030;51.164;17.100;2023-12-20T05:49:34;23.00;55.90
40323;DHT22;26030;51.164;17.100;2023-12-20T05:54:38;23.00;56.40
40323;DHT22;26030;51.164;17.100;2023-12-20T05:59:43;23.00;56.40
40323;DHT22;26030;51.164;17.100;2023-12-20T06:04:49;23.00;56.50
40323;DHT22;26030;51.164;17.100;2023-12-20T06:09:54;22.90;56.90
40323;DHT22;26030;51.164;17.100;2023-12-20T06:14:59;23.10;56.70
40323;DHT22;26030;51.164;17.100;2023-12-20T06:20:03;23.50;55.80
40323;DHT22;26030;51.164;17.100;2023-12-20T06:25:11;23.80;55.40
40323;DHT22;26030;51.164;17.100;2023-12-20T06:30:16;23.90;54.70
40323;DHT22;26030;51.164;17.100;2023-12-20T06:35:22;23.90;54.70
40323;DHT22;26030;51.164;17.100;2023-12-20T06:40:26;23.80;54.80
40323;DHT22;26030;51.164;17.100;2023-12-20T06:45:32;23.70;54.90
40323;DHT22;26030;51.164;17.100;2023-12-20T06:50:36;23.70;55.10
40323;DHT22;26030;51.164;17.100;2023-12-20T06:55:44;23.60;56.20
40323;DHT22;26030;51.164;17.100;2023-12-20T07:00:48;23.60;56.50
40323;DHT22;26030;51.164;17.100;2023-12-20T07:05:54;23.50;55.80
40323;DHT22;26030;51.164;17.100;2023-12-20T07:10:59;23.50;55.90
40323;DHT22;26030;51.164;17.100;2023-12-20T07:16:04;23.40;55.50
40323;DHT22;26030;51.164;17.100;2023-12-20T07:21:09;23.40;55.60
40323;DHT22;26030;51.164;17.100;2023-12-20T07:26:13;23.40;56.10
40323;DHT22;26030;51.164;17.100;2023-12-20T07:31:18;23.30;55.80
40323;DHT22;26030;51.164;17.100;2023-12-20T07:36:23;23.30;56.00
40323;DHT22;26030;51.164;17.100;2023-12-20T07:41:27;23.20;56.60
40323;DHT22;26030;51.164;17.100;2023-12-20T07:46:32;23.20;57.10
40323;DHT22;26030;51.164;17.100;2023-12-20T07:51:37;23.10;57.20
40323;DHT22;26030;51.164;17.100;2023-12-20T07:56:41;23.10;57.00
40323;DHT22;26030;51.164;17.100;2023-12-20T08:01:46;23.30;58.20
40323;DHT22;26030;51.164;17.100;2023-12-20T08:06:51;23.30;58.20
40323;DHT22;26030;51.164;17.100;2023-12-20T08:11:56;23.10;58.60
40323;DHT22;26030;51.164;17.100;2023-12-20T08:17:08;23.00;59.10
40323;DHT22;26030;51.164;17.100;2023-12-20T08:22:56;23.00;59.70
40323;DHT22;26030;51.164;17.100;2023-12-20T08:28:02;23.00;58.30
40323;DHT22;26030;51.164;17.100;2023-12-20T08:33:08;23.00;59.10
40323;DHT22;26030;51.164;17.100;2023-12-20T08:38:17;22.90;58.20
40323;DHT22;26030;51.164;17.100;2023-12-20T08:43:21;22.80;57.20
40323;DHT22;26030;51.164;17.100;2023-12-20T08:48:26;23.20;56.50
40323;DHT22;26030;51.164;17.100;2023-12-20T08:53:33;23.60;55.40
40323;DHT22;26030;51.164;17.100;2023-12-20T08:58:38;23.80;54.50
40323;DHT22;26030;51.164;17.100;2023-12-20T09:03:43;23.90;54.70
40323;DHT22;26030;51.164;17.100;2023-12-20T09:08:48;23.80;54.20
40323;DHT22;26030;51.164;17.100;2023-12-20T09:13:53;23.70;54.30
40323;DHT22;26030;51.164;17.100;2023-12-20T09:18:59;23.60;54.30
40323;DHT22;26030;51.164;17.100;2023-12-20T09:24:04;23.50;54.60
40323;DHT22;26030;51.164;17.100;2023-12-20T09:29:08;23.40;54.40
40323;DHT22;26030;51.164;17.100;2023-12-20T09:34:16;23.30;54.70
40323;DHT22;26030;51.164;17.100;2023-12-20T09:39:29;23.30;54.80
40323;DHT22;26030;51.164;17.100;2023-12-20T09:44:35;23.20;54.60
40323;DHT22;26030;51.164;17.100;2023-12-20T09:49:40;23.30;54.40
40323;DHT22;26030;51.164;17.100;2023-12-20T09:54:47;23.30;54.00
40323;DHT22;26030;51.164;17.100;2023-12-20T09:59:56;23.20;54.10
40323;DHT22;26030;51.164;17.100;2023-12-20T10:05:01;23.20;54.20
40323;DHT22;26030;51.164;17.100;2023-12-20T10:10:07;23.10;54.20
40323;DHT22;26030;51.164;17.100;2023-12-20T10:15:13;23.00;54.40
40323;DHT22;26030;51.164;17.100;2023-12-20T10:20:19;23.00;54.30
40323;DHT22;26030;51.164;17.100;2023-12-20T10:25:24;23.20;54.40
40323;DHT22;26030;51.164;17.100;2023-12-20T10:30:30;23.50;53.60
40323;DHT22;26030;51.164;17.100;2023-12-20T10:35:36;23.70;53.00
40323;DHT22;26030;51.164;17.100;2023-12-20T10:40:43;23.90;52.60
40323;DHT22;26030;51.164;17.100;2023-12-20T10:45:49;24.00;52.30
40323;DHT22;26030;51.164;17.100;2023-12-20T10:50:55;24.00;52.20
40323;DHT22;26030;51.164;17.100;2023-12-20T10:56:00;24.00;52.00
40323;DHT22;26030;51.164;17.100;2023-12-20T11:01:07;23.90;52.30
40323;DHT22;26030;51.164;17.100;2023-12-20T11:06:36;23.80;52.40
40323;DHT22;26030;51.164;17.100;2023-12-20T11:17:08;23.70;52.70
40323;DHT22;26030;51.164;17.100;2023-12-20T11:22:30;23.70;52.50
40323;DHT22;26030;51.164;17.100;2023-12-20T11:27:41;23.60;52.60
40323;DHT22;26030;51.164;17.100;2023-12-20T11:32:53;23.60;52.80
40323;DHT22;26030;51.164;17.100;2023-12-20T11:37:59;23.50;53.40
40323;DHT22;26030;51.164;17.100;2023-12-20T11:43:05;23.30;53.00
40323;DHT22;26030;51.164;17.100;2023-12-20T11:48:10;23.50;53.30
40323;DHT22;26030;51.164;17.100;2023-12-20T11:53:17;23.40;54.20
40323;DHT22;26030;51.164;17.100;2023-12-20T11:58:23;23.30;55.20
40323;DHT22;26030;51.164;17.100;2023-12-20T12:03:30;23.30;55.30
40323;DHT22;26030;51.164;17.100;2023-12-20T12:08:35;23.40;55.50
40323;DHT22;26030;51.164;17.100;2023-12-20T12:13:40;23.40;55.20
40323;DHT22;26030;51.164;17.100;2023-12-20T12:18:45;23.60;54.80
40323;DHT22;26030;51.164;17.100;2023-12-20T12:23:49;23.40;54.50
40323;DHT22;26030;51.164;17.100;2023-12-20T12:28:55;23.40;54.70
40323;DHT22;26030;51.164;17.100;2023-12-20T12:33:59;23.30;54.80
40323;DHT22;26030;51.164;17.100;2023-12-20T12:39:08;23.40;54.80
40323;DHT22;26030;51.164;17.100;2023-12-20T12:44:12;23.40;54.50
40323;DHT22;26030;51.164;17.100;2023-12-20T12:49:20;23.30;54.70
40323;DHT22;26030;51.164;17.100;2023-12-20T12:54:30;23.40;54.70
40323;DHT22;26030;51.164;17.100;2023-12-20T12:59:34;23.30;55.10
40323;DHT22;26030;51.164;17.100;2023-12-20T13:04:43;23.30;54.90
40323;DHT22;26030;51.164;17.100;2023-12-20T13:09:49;23.00;55.10
40323;DHT22;26030;51.164;17.100;2023-12-20T13:14:54;23.00;55.00
40323;DHT22;26030;51.164;17.100;2023-12-20T13:19:59;22.90;55.70
40323;DHT22;26030;51.164;17.100;2023-12-20T13:25:04;22.80;55.90
40323;DHT22;26030;51.164;17.100;2023-12-20T13:30:10;22.80;56.40
40323;DHT22;26030;51.164;17.100;2023-12-20T13:35:15;23.10;56.30
40323;DHT22;26030;51.164;17.100;2023-12-20T13:40:20;23.30;55.90
40323;DHT22;26030;51.164;17.100;2023-12-20T13:45:25;23.60;55.10
40323;DHT22;26030;51.164;17.100;2023-12-20T13:50:29;23.80;54.60
40323;DHT22;26030;51.164;17.100;2023-12-20T13:55:34;23.80;54.60
40323;DHT22;26030;51.164;17.100;2023-12-20T14:00:39;23.70;55.00
40323;DHT22;26030;51.164;17.100;2023-12-20T14:05:44;23.60;55.10
40323;DHT22;26030;51.164;17.100;2023-12-20T14:10:48;23.50;55.30
40323;DHT22;26030;51.164;17.100;2023-12-20T14:15:53;23.40;55.20
40323;DHT22;26030;51.164;17.100;2023-12-20T14:20:58;23.30;54.80
40323;DHT22;26030;51.164;17.100;2023-12-20T14:26:03;23.30;55.30
40323;DHT22;26030;51.164;17.100;2023-12-20T14:31:08;23.20;55.40
40323;DHT22;26030;51.164;17.100;2023-12-20T14:36:14;23.10;55.40
40323;DHT22;26030;51.164;17.100;2023-12-20T14:41:21;23.10;55.20
40323;DHT22;26030;51.164;17.100;2023-12-20T14:46:28;23.00;55.30
40323;DHT22;26030;51.164;17.100;2023-12-20T14:51:33;23.10;55.00
40323;DHT22;26030;51.164;17.100;2023-12-20T14:56:37;23.00;55.40
40323;DHT22;26030;51.164;17.100;2023-12-20T15:01:43;23.00;55.20
40323;DHT22;26030;51.164;17.100;2023-12-20T15:06:48;23.30;55.90
40323;DHT22;26030;51.164;17.100;2023-12-20T15:11:53;23.30;55.40
40323;DHT22;26030;51.164;17.100;2023-12-20T15:16:57;23.10;55.10
40323;DHT22;26030;51.164;17.100;2023-12-20T15:22:02;23.00;55.30
40323;DHT22;26030;51.164;17.100;2023-12-20T15:27:07;23.00;55.50
40323;DHT22;26030;51.164;17.100;2023-12-20T15:32:12;23.10;55.70
40323;DHT22;26030;51.164;17.100;2023-12-20T15:37:16;23.00;55.70
40323;DHT22;26030;51.164;17.100;2023-12-20T15:42:21;22.90;55.50
40323;DHT22;26030;51.164;17.100;2023-12-20T15:47:26;22.80;55.00
40323;DHT22;26030;51.164;17.100;2023-12-20T15:52:31;22.90;55.90
40323;DHT22;26030;51.164;17.100;2023-12-20T15:57:36;22.90;55.10
40323;DHT22;26030;51.164;17.100;2023-12-20T16:02:54;23.40;54.00
40323;DHT22;26030;51.164;17.100;2023-12-20T16:07:59;23.80;53.00
40323;DHT22;26030;51.164;17.100;2023-12-20T16:13:04;23.90;52.40
40323;DHT22;26030;51.164;17.100;2023-12-20T16:18:09;24.00;52.20
40323;DHT22;26030;51.164;17.100;2023-12-20T16:23:15;24.00;52.00
40323;DHT22;26030;51.164;17.100;2023-12-20T16:28:19;24.00;51.70
40323;DHT22;26030;51.164;17.100;2023-12-20T16:33:24;23.80;52.20
40323;DHT22;26030;51.164;17.100;2023-12-20T16:38:28;23.70;52.60
40323;DHT22;26030;51.164;17.100;2023-12-20T16:43:34;23.60;52.70
40323;DHT22;26030;51.164;17.100;2023-12-20T16:48:50;23.50;53.30
40323;DHT22;26030;51.164;17.100;2023-12-20T16:53:55;23.40;52.20
40323;DHT22;26030;51.164;17.100;2023-12-20T16:59:01;23.40;52.60
40323;DHT22;26030;51.164;17.100;2023-12-20T17:04:05;23.30;52.50
40323;DHT22;26030;51.164;17.100;2023-12-20T17:09:10;23.40;53.30
40323;DHT22;26030;51.164;17.100;2023-12-20T17:14:15;23.30;52.70
40323;DHT22;26030;51.164;17.100;2023-12-20T17:19:20;23.20;53.40
40323;DHT22;26030;51.164;17.100;2023-12-20T17:24:27;23.20;53.50
40323;DHT22;26030;51.164;17.100;2023-12-20T17:29:32;23.20;54.60
40323;DHT22;26030;51.164;17.100;2023-12-20T17:34:42;23.10;54.40
40323;DHT22;26030;51.164;17.100;2023-12-20T17:39:49;23.10;54.60
40323;DHT22;26030;51.164;17.100;2023-12-20T17:44:56;23.10;56.60
40323;DHT22;26030;51.164;17.100;2023-12-20T17:50:17;23.00;57.70
40323;DHT22;26030;51.164;17.100;2023-12-20T17:55:25;23.00;57.50
40323;DHT22;26030;51.164;17.100;2023-12-20T18:00:57;22.90;57.70
40323;DHT22;26030;51.164;17.100;2023-12-20T18:06:26;23.00;58.40
40323;DHT22;26030;51.164;17.100;2023-12-20T18:11:34;23.00;59.90
40323;DHT22;26030;51.164;17.100;2023-12-20T18:16:40;23.00;58.60
40323;DHT22;26030;51.164;17.100;2023-12-20T18:21:48;23.60;57.40
40323;DHT22;26030;51.164;17.100;2023-12-20T18:26:58;23.70;56.50
40323;DHT22;26030;51.164;17.100;2023-12-20T18:32:05;23.70;55.90
40323;DHT22;26030;51.164;17.100;2023-12-20T18:37:13;23.70;55.80
40323;DHT22;26030;51.164;17.100;2023-12-20T18:42:20;23.60;55.90
40323;DHT22;26030;51.164;17.100;2023-12-20T18:47:26;23.60;56.00
40323;DHT22;26030;51.164;17.100;2023-12-20T18:52:34;23.50;57.30
40323;DHT22;26030;51.164;17.100;2023-12-20T18:57:41;23.40;57.90
40323;DHT22;26030;51.164;17.100;2023-12-20T19:02:52;23.40;56.70
40323;DHT22;26030;51.164;17.100;2023-12-20T19:08:01;23.20;56.80
40323;DHT22;26030;51.164;17.100;2023-12-20T19:13:08;23.40;56.60
40323;DHT22;26030;51.164;17.100;2023-12-20T19:18:12;23.30;56.60
40323;DHT22;26030;51.164;17.100;2023-12-20T19:23:17;23.20;56.90
40323;DHT22;26030;51.164;17.100;2023-12-20T19:28:22;23.30;56.30
40323;DHT22;26030;51.164;17.100;2023-12-20T19:33:27;23.30;55.70
40323;DHT22;26030;51.164;17.100;2023-12-20T19:38:33;23.20;55.60
40323;DHT22;26030;51.164;17.100;2023-12-20T19:43:39;23.20;56.10
40323;DHT22;26030;51.164;17.100;2023-12-20T19:48:44;23.30;57.20
40323;DHT22;26030;51.164;17.100;2023-12-20T19:53:49;23.30;56.10
40323;DHT22;26030;51.164;17.100;2023-12-20T19:58:54;23.20;55.40
40323;DHT22;26030;51.164;17.100;2023-12-20T20:03:59;23.10;55.50
40323;DHT22;26030;51.164;17.100;2023-12-20T20:09:05;23.00;55.30
40323;DHT22;26030;51.164;17.100;2023-12-20T20:14:10;23.00;55.70
40323;DHT22;26030;51.164;17.100;2023-12-20T20:19:15;23.00;55.10
40323;DHT22;26030;51.164;17.100;2023-12-20T20:24:20;22.90;58.40
40323;DHT22;26030;51.164;17.100;2023-12-20T20:29:25;23.00;58.70
40323;DHT22;26030;51.164;17.100;2023-12-20T20:34:31;22.80;59.10
40323;DHT22;26030;51.164;17.100;2023-12-20T20:39:36;22.80;59.10
40323;DHT22;26030;51.164;17.100;2023-12-20T20:44:42;22.70;58.60
40323;DHT22;26030;51.164;17.100;2023-12-20T20:49:46;22.70;58.30
40323;DHT22;26030;51.164;17.100;2023-12-20T20:54:51;22.90;57.80
40323;DHT22;26030;51.164;17.100;2023-12-20T20:59:56;23.30;56.70
40323;DHT22;26030;51.164;17.100;2023-12-20T21:05:01;23.60;55.50
40323;DHT22;26030;51.164;17.100;2023-12-20T21:10:07;23.80;55.00
40323;DHT22;26030;51.164;17.100;2023-12-20T21:15:12;23.80;55.20
40323;DHT22;26030;51.164;17.100;2023-12-20T21:20:18;23.80;55.70
40323;DHT22;26030;51.164;17.100;2023-12-20T21:25:23;23.80;59.80
40323;DHT22;26030;51.164;17.100;2023-12-20T21:30:28;23.70;58.40
40323;DHT22;26030;51.164;17.100;2023-12-20T21:35:37;23.70;58.80
40323;DHT22;26030;51.164;17.100;2023-12-20T21:40:42;23.70;59.50
40323;DHT22;26030;51.164;17.100;2023-12-20T21:45:46;23.70;60.00
40323;DHT22;26030;51.164;17.100;2023-12-20T21:50:55;23.40;60.90
40323;DHT22;26030;51.164;17.100;2023-12-20T21:56:00;23.30;61.20
40323;DHT22;26030;51.164;17.100;2023-12-20T22:01:04;23.20;61.50
40323;DHT22;26030;51.164;17.100;2023-12-20T22:06:09;23.10;62.30
40323;DHT22;26030;51.164;17.100;2023-12-20T22:11:14;23.10;62.50
40323;DHT22;26030;51.164;17.100;2023-12-20T22:16:19;22.90;62.20
40323;DHT22;26030;51.164;17.100;2023-12-20T22:21:25;23.00;63.80
40323;DHT22;26030;51.164;17.100;2023-12-20T22:26:30;23.10;63.30
40323;DHT22;26030;51.164;17.100;2023-12-20T22:31:35;23.40;62.30
40323;DHT22;26030;51.164;17.100;2023-12-20T22:36:40;23.80;61.50
40323;DHT22;26030;51.164;17.100;2023-12-20T22:41:45;24.00;60.70
40323;DHT22;26030;51.164;17.100;2023-12-20T22:46:50;24.00;60.90
40323;DHT22;26030;51.164;17.100;2023-12-20T22:51:54;24.10;61.50
40323;DHT22;26030;51.164;17.100;2023-12-20T22:56:59;24.00;61.00
40323;DHT22;26030;51.164;17.100;2023-12-20T23:02:04;23.80;61.70
40323;DHT22;26030;51.164;17.100;2023-12-20T23:07:09;23.80;62.00
40323;DHT22;26030;51.164;17.100;2023-12-20T23:12:14;23.70;61.60
40323;DHT22;26030;51.164;17.100;2023-12-20T23:17:18;23.60;62.10
40323;DHT22;26030;51.164;17.100;2023-12-20T23:22:23;23.50;61.90
40323;DHT22;26030;51.164;17.100;2023-12-20T23:27:28;23.60;62.00
40323;DHT22;26030;51.164;17.100;2023-12-20T23:32:32;23.60;61.80
40323;DHT22;26030;51.164;17.100;2023-12-20T23:37:37;23.60;61.90
40323;DHT22;26030;51.164;17.100;2023-12-20T23:42:42;23.50;62.10
40323;DHT22;26030;51.164;17.100;2023-12-20T23:47:46;23.50;62.30
40323;DHT22;26030;51.164;17.100;2023-12-20T23:52:52;23.40;62.90
40323;DHT22;26030;51.164;17.100;2023-12-20T23:57:57;23.40;62.60
